| time (UTC) | temp F | wind direction | speed MPH | gust MPH | rain 1hr in | rain 24hr in | rain mn in | humidity % | barometer mb |
| 20260506160949 | 68 | 217 | 4.0 | 10.0 | 0.00 | 0.15 | 0.15 | 83 | 1035.6 |
| 20260506160444 | 68 | 166 | 4.0 | 10.0 | 0.00 | 0.15 | 0.15 | 85 | 1035.5 |
| 20260506160152 | 68 | 168 | 4.0 | 12.0 | 0.00 | 0.15 | 0.15 | 85 | 1035.5 |
| 20260506155433 | 67 | 155 | 4.0 | 12.0 | 0.00 | 0.15 | 0.15 | 87 | 1035.5 |
| 20260506154926 | 67 | 34 | 4.0 | 10.0 | 0.00 | 0.15 | 0.15 | 87 | 1035.7 |
| 20260506154636 | 66 | 242 | 4.0 | 10.0 | 0.00 | 0.15 | 0.15 | 88 | 1035.7 |
| 20260506153913 | 65 | 149 | 4.0 | 10.0 | 0.00 | 0.15 | 0.15 | 89 | 1035.7 |
| 20260506153407 | 65 | 201 | 3.0 | 9.0 | 0.00 | 0.15 | 0.15 | 89 | 1035.9 |
| 20260506152901 | 64 | 190 | 3.0 | 14.0 | 0.00 | 0.15 | 0.15 | 90 | 1035.9 |
| 20260506152351 | 64 | 155 | 3.0 | 14.0 | 0.00 | 0.15 | 0.15 | 90 | 1035.9 |
| 20260506152118 | 64 | 251 | 3.0 | 9.0 | 0.01 | 0.15 | 0.15 | 91 | 1035.8 |
| 20260506151338 | 63 | 248 | 4.0 | 9.0 | 0.01 | 0.15 | 0.15 | 92 | 1035.8 |
| 20260506150838 | 63 | 179 | 3.0 | 8.0 | 0.01 | 0.15 | 0.15 | 93 | 1035.8 |
| 20260506150331 | 63 | 217 | 2.0 | 8.0 | 0.01 | 0.15 | 0.15 | 93 | 1035.9 |
| 20260506145825 | 63 | 98 | 2.0 | 6.0 | 0.01 | 0.15 | 0.15 | 94 | 1035.9 |
| 20260506145314 | 62 | 139 | 2.0 | 6.0 | 0.02 | 0.15 | 0.15 | 93 | 1035.9 |
| 20260506144809 | 62 | 215 | 1.0 | 3.0 | 0.02 | 0.15 | 0.15 | 95 | 1036.0 |
| 20260506144307 | 62 | 184 | 1.0 | 3.0 | 0.02 | 0.15 | 0.15 | 95 | 1036.0 |
| 20260506143801 | 61 | 126 | 2.0 | 4.0 | 0.02 | 0.15 | 0.15 | 95 | 1036.0 |
| 20260506143747 | 61 | 190 | 2.0 | 4.0 | 0.02 | 0.15 | 0.15 | 95 | 1035.9 |
| 20260506142749 | 61 | 154 | 1.0 | 4.0 | 0.02 | 0.15 | 0.15 | 95 | 1035.9 |
| 20260506142243 | 60 | 162 | 1.0 | 4.0 | 0.01 | 0.14 | 0.15 | 95 | 1035.9 |
| 20260506141738 | 60 | 106 | 1.0 | 4.0 | 0.01 | 0.14 | 0.14 | 95 | 1036.1 |
| 20260506141449 | 60 | 143 | 1.0 | 3.0 | 0.02 | 0.14 | 0.14 | 95 | 1036.1 |
| 20260506140726 | 60 | 243 | 0.0 | 1.0 | 0.02 | 0.14 | 0.14 | 95 | 1036.1 |
| 20260506140214 | 60 | 157 | 1.0 | 4.0 | 0.02 | 0.14 | 0.14 | 95 | 1036.3 |
| 20260506135714 | 60 | 173 | 1.0 | 4.0 | 0.02 | 0.14 | 0.14 | 95 | 1036.3 |
| 20260506135208 | 60 | 182 | 1.0 | 4.0 | 0.02 | 0.13 | 0.13 | 95 | 1036.3 |
| 20260506134701 | 60 | 211 | 1.0 | 5.0 | 0.02 | 0.13 | 0.13 | 95 | 1036.6 |
| 20260506134155 | 60 | 155 | 1.0 | 5.0 | 0.04 | 0.13 | 0.13 | 95 | 1036.6 |
| 20260506133910 | 60 | 221 | 1.0 | 5.0 | 0.04 | 0.13 | 0.13 | 94 | 1036.6 |
| 20260506133143 | 60 | 138 | 1.0 | 5.0 | 0.05 | 0.13 | 0.13 | 94 | 1036.4 |
| 20260506132637 | 60 | 150 | 1.0 | 4.0 | 0.05 | 0.13 | 0.13 | 94 | 1036.4 |
| 20260506132132 | 60 | 236 | 1.0 | 3.0 | 0.06 | 0.13 | 0.13 | 95 | 1036.4 |
| 20260506131850 | 60 | 215 | 1.0 | 3.0 | 0.07 | 0.13 | 0.13 | 95 | 1036.1 |
| 20260506131603 | 60 | 149 | 0.0 | 0.0 | 0.06 | 0.12 | 0.12 | 95 | 1036.1 |
| 20260506130613 | 60 | 149 | 0.0 | 1.0 | 0.06 | 0.12 | 0.12 | 95 | 1036.5 |
| 20260506130103 | 59 | 149 | 0.0 | 2.0 | 0.06 | 0.12 | 0.12 | 95 | 1036.5 |
| 20260506125601 | 59 | 141 | 0.0 | 2.0 | 0.06 | 0.12 | 0.12 | 95 | 1036.5 |
| 20260506125321 | 59 | 158 | 0.0 | 2.0 | 0.06 | 0.11 | 0.11 | 94 | 1036.5 |
| 20260506124549 | 59 | 168 | 0.0 | 2.0 | 0.05 | 0.10 | 0.11 | 94 | 1036.5 |
| 20260506124043 | 59 | 155 | 0.0 | 1.0 | 0.05 | 0.09 | 0.09 | 94 | 1036.5 |
| 20260506123537 | 59 | 162 | 0.0 | 2.0 | 0.06 | 0.09 | 0.09 | 94 | 1036.5 |
| 20260506123031 | 59 | 157 | 0.0 | 2.0 | 0.05 | 0.08 | 0.08 | 94 | 1036.5 |
| 20260506122521 | 59 | 157 | 0.0 | 2.0 | 0.06 | 0.08 | 0.08 | 94 | 1036.5 |
| 20260506122019 | 58 | 149 | 0.0 | 2.0 | 0.05 | 0.07 | 0.07 | 94 | 1036.7 |
| 20260506121735 | 58 | 161 | 0.0 | 2.0 | 0.04 | 0.06 | 0.06 | 94 | 1036.7 |
| 20260506121007 | 58 | 257 | 0.0 | 1.0 | 0.05 | 0.06 | 0.06 | 94 | 1036.7 |
| 20260506120500 | 58 | 218 | 0.0 | 0.0 | 0.05 | 0.06 | 0.06 | 95 | 1036.5 |
| 20260506120212 | 58 | 159 | 0.0 | 0.0 | 0.05 | 0.06 | 0.06 | 95 | 1036.5 |
| 20260506115449 | 58 | 159 | 0.0 | 0.0 | 0.06 | 0.06 | 0.06 | 94 | 1036.5 |
| 20260506115206 | 58 | 159 | 0.0 | 0.0 | 0.05 | 0.05 | 0.05 | 94 | 1036.8 |
| 20260506114707 | 58 | 159 | 0.0 | 0.0 | 0.05 | 0.05 | 0.05 | 94 | 1036.8 |
| 20260506114159 | 58 | 159 | 0.0 | 0.0 | 0.04 | 0.04 | 0.04 | 93 | 1036.8 |
| 20260506113434 | 58 | 159 | 0.0 | 0.0 | 0.03 | 0.03 | 0.03 | 93 | 1036.7 |
| 20260506112934 | 58 | 159 | 0.0 | 0.0 | 0.03 | 0.03 | 0.03 | 92 | 1036.7 |
| 20260506112657 | 58 | 159 | 0.0 | 0.0 | 0.02 | 0.02 | 0.02 | 92 | 1036.7 |
| 20260506111935 | 58 | 159 | 0.0 | 0.0 | 0.02 | 0.02 | 0.02 | 91 | 1036.5 |
| 20260506111434 | 58 | 159 | 0.0 | 0.0 | 0.02 | 0.02 | 0.02 | 91 | 1036.5 |
| 20260506110933 | 59 | 159 | 0.0 | 0.0 | 0.01 | 0.01 | 0.01 | 90 | 1036.5 |
| 20260506110431 | 59 | 159 | 0.0 | 0.0 | 0.01 | 0.01 | 0.01 | 89 | 1036.4 |
| 20260506110150 | 59 | 159 | 0.0 | 0.0 | 0.01 | 0.01 | 0.01 | 88 | 1036.4 |
| 20260506105429 | 60 | 159 | 0.0 | 0.0 | 0.00 | 0.00 | 0.00 | 87 | 1036.4 |
| 20260506104928 | 60 | 159 | 0.0 | 0.0 | 0.00 | 0.00 | 0.00 | 86 | 1036.2 |
| 20260506104429 | 60 | 159 | 0.0 | 0.0 | 0.00 | 0.00 | 0.00 | 83 | 1036.2 |
| 20260506104157 | 60 | 159 | 0.0 | 0.0 | 0.00 | 0.00 | 0.00 | 81 | 1036.2 |
| 20260506103651 | 61 | 159 | 0.0 | 0.0 | 0.00 | 0.00 | 0.00 | 81 | 1036.0 |
| 20260506102926 | 61 | 159 | 0.0 | 0.0 | 0.00 | 0.00 | 0.00 | 79 | 1036.0 |
| 20260506102414 | 62 | 159 | 0.0 | 0.0 | 0.00 | 0.00 | 0.00 | 77 | 1036.0 |
| 20260506102130 | 62 | 159 | 0.0 | 1.0 | 0.00 | 0.00 | 0.00 | 76 | 1035.9 |
| 20260506101640 | 62 | 159 | 0.0 | 2.0 | 0.00 | 0.00 | 0.00 | 74 | 1035.9 |
| 20260506100913 | 62 | 137 | 1.0 | 2.0 | 0.00 | 0.00 | 0.00 | 74 | 1035.9 |
| 20260506100412 | 63 | 159 | 1.0 | 2.0 | 0.00 | 0.00 | 0.00 | 73 | 1035.9 |
| 20260506095913 | 63 | 138 | 1.0 | 2.0 | 0.00 | 0.00 | 0.00 | 72 | 1035.9 |
| 20260506095413 | 63 | 144 | 0.0 | 1.0 | 0.00 | 0.00 | 0.00 | 74 | 1035.9 |
| 20260506094916 | 64 | 136 | 0.0 | 1.0 | 0.00 | 0.00 | 0.00 | 70 | 1035.8 |
| 20260506094640 | 64 | 190 | 0.0 | 2.0 | 0.00 | 0.00 | 0.00 | 68 | 1035.8 |
| 20260506093910 | 64 | 144 | 0.0 | 2.0 | 0.00 | 0.00 | 0.00 | 67 | 1035.8 |
| 20260506093358 | 64 | 214 | 1.0 | 4.0 | 0.00 | 0.00 | 0.00 | 67 | 1035.5 |
| 20260506092846 | 65 | 179 | 1.0 | 4.0 | 0.00 | 0.00 | 0.00 | 65 | 1035.5 |
| 20260506092334 | 65 | 169 | 1.0 | 3.0 | 0.00 | 0.00 | 0.00 | 65 | 1035.5 |
| 20260506091824 | 65 | 150 | 1.0 | 4.0 | 0.00 | 0.00 | 0.00 | 65 | 1035.7 |
| 20260506091311 | 65 | 183 | 1.0 | 4.0 | 0.00 | 0.00 | 0.00 | 64 | 1035.7 |
| 20260506091241 | 65 | 155 | 1.0 | 3.0 | 0.00 | 0.00 | 0.00 | 65 | 1035.7 |
| 20260506090248 | 65 | 161 | 1.0 | 5.0 | 0.00 | 0.00 | 0.00 | 64 | 1036.0 |
| 20260506090008 | 65 | 161 | 2.0 | 5.0 | 0.00 | 0.00 | 0.00 | 65 | 1036.0 |
| 20260506085233 | 65 | 165 | 1.0 | 4.0 | 0.00 | 0.00 | 0.00 | 64 | 1036.0 |
| 20260506084728 | 65 | 159 | 1.0 | 3.0 | 0.00 | 0.00 | 0.00 | 64 | 1036.0 |
| 20260506084217 | 65 | 213 | 1.0 | 3.0 | 0.00 | 0.00 | 0.00 | 64 | 1036.0 |
| 20260506083716 | 65 | 197 | 2.0 | 4.0 | 0.00 | 0.00 | 0.00 | 64 | 1036.0 |
| 20260506083436 | 65 | 163 | 2.0 | 5.0 | 0.00 | 0.00 | 0.00 | 64 | 1036.0 |
| 20260506082924 | 65 | 209 | 2.0 | 5.0 | 0.00 | 0.00 | 0.00 | 64 | 1036.0 |
| 20260506082155 | 65 | 139 | 2.0 | 5.0 | 0.00 | 0.00 | 0.00 | 64 | 1036.0 |
| 20260506081652 | 65 | 150 | 2.0 | 5.0 | 0.00 | 0.00 | 0.00 | 64 | 1036.0 |
| 20260506081147 | 65 | 139 | 1.0 | 4.0 | 0.00 | 0.00 | 0.00 | 64 | 1036.0 |
| 20260506080640 | 64 | 162 | 1.0 | 4.0 | 0.00 | 0.00 | 0.00 | 65 | 1036.0 |
| 20260506080134 | 64 | 166 | 1.0 | 5.0 | 0.00 | 0.00 | 0.00 | 65 | 1035.9 |
| 20260506073057 | 62 | 167 | 0.0 | 1.0 | 0.00 | 0.00 | 0.00 | 67 | 1036.0 |
| 20260506073036 | 62 | 166 | 0.0 | 1.0 | 0.00 | 0.00 | 0.00 | 68 | 1036.0 |
| 20260506072038 | 62 | 161 | 0.0 | 0.0 | 0.00 | 0.00 | 0.00 | 68 | 1036.0 |
| 20260506071801 | 62 | 161 | 0.0 | 0.0 | 0.00 | 0.00 | 0.00 | 67 | 1036.0 |
| 20260506071126 | 63 | 161 | 0.0 | 0.0 | 0.00 | 0.00 | 0.00 | 67 | 1036.0 |
| 20260506062441 | 67 | 140 | 1.0 | 4.0 | 0.00 | 0.00 | 0.00 | 57 | 1036.5 |
| 20260506062154 | 67 | 163 | 1.0 | 4.0 | 0.00 | 0.00 | 0.00 | 56 | 1036.7 |
| 20260506061428 | 68 | 209 | 1.0 | 4.0 | 0.00 | 0.00 | 0.00 | 56 | 1036.7 |
| 20260506060917 | 68 | 171 | 1.0 | 4.0 | 0.00 | 0.00 | 0.00 | 56 | 1036.7 |
| 20260506060415 | 68 | 223 | 1.0 | 4.0 | 0.00 | 0.00 | 0.00 | 55 | 1036.9 |
| 20260506051315 | 69 | 246 | 1.0 | 5.0 | 0.00 | 0.00 | 0.00 | 53 | 1037.4 |
| 20260506051031 | 69 | 246 | 0.0 | 5.0 | 0.00 | 0.00 | 0.00 | 53 | 1037.4 |
| 20260506050530 | 69 | 205 | 1.0 | 5.0 | 0.00 | 0.00 | 0.00 | 53 | 1037.3 |
| 20260506044746 | 70 | 223 | 0.0 | 2.0 | 0.00 | 0.00 | 0.00 | 52 | 1037.4 |
| 20260506044239 | 70 | 214 | 1.0 | 4.0 | 0.00 | 0.00 | 0.00 | 52 | 1037.4 |
| 20260506043733 | 70 | 206 | 1.0 | 5.0 | 0.00 | 0.00 | 0.00 | 51 | 1037.4 |
| 20260506043449 | 70 | 209 | 1.0 | 5.0 | 0.00 | 0.00 | 0.00 | 51 | 1037.2 |
| 20260506042717 | 70 | 205 | 2.0 | 7.0 | 0.00 | 0.00 | 0.00 | 51 | 1037.2 |
| 20260506042210 | 70 | 252 | 2.0 | 7.0 | 0.00 | 0.00 | 0.00 | 51 | 1037.2 |
| 20260506041709 | 70 | 182 | 2.0 | 7.0 | 0.00 | 0.00 | 0.00 | 51 | 1037.3 |
| 20260506041203 | 70 | 146 | 1.0 | 7.0 | 0.00 | 0.00 | 0.00 | 51 | 1037.3 |
| 20260506040658 | 69 | 213 | 1.0 | 6.0 | 0.00 | 0.00 | 0.00 | 51 | 1037.3 |
| 20260506040151 | 70 | 196 | 1.0 | 5.0 | 0.00 | 0.00 | 0.00 | 51 | 1037.3 |
| 20260506035646 | 70 | 221 | 1.0 | 6.0 | 0.00 | 0.00 | 0.00 | 50 | 1037.3 |
| 20260506035139 | 70 | 148 | 2.0 | 6.0 | 0.00 | 0.00 | 0.00 | 50 | 1037.3 |
| 20260506034629 | 70 | 156 | 2.0 | 8.0 | 0.00 | 0.00 | 0.00 | 49 | 1037.3 |
| 20260506034613 | 70 | 196 | 2.0 | 8.0 | 0.00 | 0.00 | 0.00 | 49 | 1037.3 |
| 20260506033834 | 71 | 237 | 1.0 | 6.0 | 0.00 | 0.00 | 0.00 | 49 | 1037.4 |
| 20260506033115 | 71 | 148 | 1.0 | 6.0 | 0.00 | 0.00 | 0.00 | 49 | 1037.4 |
| 20260506032609 | 71 | 202 | 2.0 | 6.0 | 0.00 | 0.00 | 0.00 | 48 | 1037.4 |
| 20260506032103 | 71 | 166 | 3.0 | 7.0 | 0.00 | 0.00 | 0.00 | 48 | 1037.4 |
| 20260506031557 | 71 | 219 | 3.0 | 7.0 | 0.00 | 0.00 | 0.00 | 48 | 1037.4 |
| 20260506031049 | 71 | 206 | 2.0 | 7.0 | 0.00 | 0.00 | 0.00 | 48 | 1037.4 |
| 20260506030545 | 71 | 221 | 2.0 | 6.0 | 0.00 | 0.00 | 0.00 | 48 | 1037.4 |
| 20260506030303 | 71 | 238 | 2.0 | 6.0 | 0.00 | 0.00 | 0.00 | 48 | 1037.4 |
| 20260506025533 | 71 | 151 | 2.0 | 6.0 | 0.00 | 0.00 | 0.00 | 47 | 1037.4 |
| 20260506025512 | 71 | 223 | 2.0 | 6.0 | 0.00 | 0.00 | 0.00 | 47 | 1037.4 |
| 20260506024521 | 71 | 140 | 2.0 | 7.0 | 0.00 | 0.00 | 0.00 | 47 | 1037.4 |
| 20260506024015 | 71 | 163 | 2.0 | 7.0 | 0.00 | 0.00 | 0.00 | 47 | 1037.4 |
| 20260506023728 | 71 | 167 | 2.0 | 5.0 | 0.00 | 0.00 | 0.00 | 47 | 1037.5 |
| 20260506023003 | 71 | 229 | 1.0 | 4.0 | 0.00 | 0.00 | 0.00 | 47 | 1037.5 |
| 20260506022457 | 71 | 206 | 1.0 | 6.0 | 0.00 | 0.00 | 0.00 | 46 | 1037.5 |
| 20260506021951 | 71 | 228 | 2.0 | 7.0 | 0.00 | 0.00 | 0.00 | 46 | 1037.3 |
| 20260506021446 | 71 | 216 | 3.0 | 11.0 | 0.00 | 0.00 | 0.00 | 46 | 1037.3 |
| 20260506020935 | 71 | 238 | 3.0 | 11.0 | 0.00 | 0.00 | 0.00 | 45 | 1037.3 |
| 20260506020431 | 71 | 239 | 2.0 | 8.0 | 0.00 | 0.00 | 0.00 | 45 | 1037.3 |
| 20260506015926 | 71 | 236 | 2.0 | 6.0 | 0.00 | 0.00 | 0.00 | 45 | 1037.3 |
| 20260506015426 | 71 | 208 | 2.0 | 5.0 | 0.00 | 0.00 | 0.00 | 45 | 1037.3 |
| 20260506014926 | 71 | 252 | 2.0 | 7.0 | 0.00 | 0.00 | 0.00 | 44 | 1037.4 |
| 20260506014425 | 72 | 124 | 2.0 | 7.0 | 0.00 | 0.00 | 0.00 | 44 | 1037.4 |
| 20260506013926 | 72 | 242 | 1.0 | 6.0 | 0.00 | 0.00 | 0.00 | 44 | 1037.4 |
| 20260506013510 | 72 | 232 | 2.0 | 6.0 | 0.00 | 0.00 | 0.00 | 43 | 1037.1 |
| 20260506012652 | 73 | 197 | 2.0 | 8.0 | 0.00 | 0.00 | 0.00 | 43 | 1037.1 |
| 20260506011929 | 73 | 234 | 2.0 | 8.0 | 0.00 | 0.00 | 0.00 | 42 | 1037.0 |
| 20260506011423 | 73 | 231 | 2.0 | 8.0 | 0.00 | 0.00 | 0.00 | 42 | 1037.0 |
| 20260506011130 | 73 | 244 | 2.0 | 8.0 | 0.00 | 0.00 | 0.00 | 42 | 1037.0 |
| 20260506010412 | 73 | 226 | 3.0 | 10.0 | 0.00 | 0.00 | 0.00 | 41 | 1037.0 |
| 20260506005911 | 74 | 137 | 3.0 | 10.0 | 0.00 | 0.00 | 0.00 | 42 | 1037.0 |
| 20260506005411 | 74 | 245 | 2.0 | 8.0 | 0.00 | 0.00 | 0.00 | 41 | 1037.0 |
| 20260506004911 | 74 | 194 | 3.0 | 8.0 | 0.00 | 0.00 | 0.00 | 41 | 1036.6 |
| 20260506004411 | 74 | 166 | 3.0 | 13.0 | 0.00 | 0.00 | 0.00 | 41 | 1036.6 |
| 20260506003912 | 74 | 146 | 3.0 | 13.0 | 0.00 | 0.00 | 0.00 | 41 | 1036.6 |
| 20260506003412 | 75 | 148 | 3.0 | 8.0 | 0.00 | 0.00 | 0.00 | 41 | 1036.5 |
| 20260506002916 | 75 | 251 | 3.0 | 8.0 | 0.00 | 0.00 | 0.00 | 41 | 1036.5 |
| 20260506002400 | 75 | 199 | 4.0 | 13.0 | 0.00 | 0.00 | 0.00 | 41 | 1036.5 |
| 20260506001847 | 75 | 139 | 4.0 | 13.0 | 0.00 | 0.00 | 0.00 | 41 | 1036.5 |
| 20260506001335 | 76 | 242 | 4.0 | 11.0 | 0.00 | 0.00 | 0.00 | 41 | 1036.5 |
| 20260506000824 | 76 | 218 | 3.0 | 9.0 | 0.00 | 0.00 | 0.00 | 41 | 1036.5 |
| 20260506000312 | 76 | 254 | 3.0 | 9.0 | 0.00 | 0.00 | 0.00 | 41 | 1036.2 |
| 20260505235811 | 76 | 213 | 3.0 | 9.0 | 0.00 | 0.00 | 0.00 | 41 | 1036.2 |
| 20260505235305 | 76 | 227 | 4.0 | 10.0 | 0.00 | 0.00 | 0.00 | 41 | 1036.2 |
| 20260505234758 | 77 | 195 | 3.0 | 10.0 | 0.00 | 0.00 | 0.00 | 41 | 1036.1 |
| 20260505234252 | 77 | 192 | 4.0 | 17.0 | 0.00 | 0.00 | 0.00 | 41 | 1036.1 |
| 20260505234008 | 77 | 169 | 4.0 | 17.0 | 0.00 | 0.00 | 0.00 | 41 | 1036.1 |
| 20260505233239 | 77 | 140 | 4.0 | 9.0 | 0.00 | 0.00 | 0.00 | 42 | 1036.1 |
| 20260505232733 | 77 | 150 | 3.0 | 11.0 | 0.00 | 0.00 | 0.00 | 42 | 1036.1 |
| 20260505232447 | 78 | 198 | 3.0 | 11.0 | 0.00 | 0.00 | 0.00 | 42 | 1036.1 |
| 20260505231719 | 78 | 141 | 3.0 | 11.0 | 0.00 | 0.00 | 0.00 | 41 | 1036.0 |
| 20260505231215 | 78 | 131 | 4.0 | 10.0 | 0.00 | 0.00 | 0.00 | 41 | 1036.0 |
| 20260505230703 | 78 | 159 | 3.0 | 10.0 | 0.00 | 0.00 | 0.00 | 40 | 1036.0 |
| 20260505230203 | 78 | 187 | 2.0 | 10.0 | 0.00 | 0.00 | 0.00 | 40 | 1036.1 |
| 20260505225655 | 78 | 219 | 2.0 | 10.0 | 0.00 | 0.00 | 0.00 | 39 | 1036.1 |
| 20260505225151 | 78 | 242 | 2.0 | 6.0 | 0.00 | 0.00 | 0.00 | 40 | 1036.1 |
| 20260505224644 | 78 | 216 | 3.0 | 10.0 | 0.00 | 0.00 | 0.00 | 40 | 1036.2 |
| 20260505224139 | 78 | 190 | 3.0 | 10.0 | 0.00 | 0.00 | 0.00 | 39 | 1036.2 |
| 20260505223631 | 78 | 236 | 3.0 | 8.0 | 0.00 | 0.00 | 0.00 | 39 | 1036.2 |
| 20260505223120 | 79 | 229 | 3.0 | 14.0 | 0.00 | 0.00 | 0.00 | 39 | 1036.4 |
| 20260505222620 | 79 | 269 | 3.0 | 14.0 | 0.00 | 0.00 | 0.00 | 39 | 1036.4 |
| 20260505222113 | 79 | 169 | 3.0 | 12.0 | 0.00 | 0.00 | 0.00 | 39 | 1036.2 |
| 20260505221607 | 80 | 154 | 3.0 | 12.0 | 0.00 | 0.00 | 0.00 | 39 | 1036.2 |
| 20260505221102 | 80 | 256 | 3.0 | 10.0 | 0.00 | 0.00 | 0.00 | 37 | 1036.2 |
| 20260505220555 | 80 | 267 | 4.0 | 12.0 | 0.00 | 0.00 | 0.00 | 38 | 1036.1 |
| 20260505220049 | 80 | 155 | 4.0 | 15.0 | 0.00 | 0.00 | 0.00 | 38 | 1036.1 |
| 20260505215800 | 80 | 224 | 3.0 | 15.0 | 0.00 | 0.00 | 0.00 | 38 | 1036.1 |
| 20260505215038 | 80 | 115 | 4.0 | 10.0 | 0.00 | 0.00 | 0.00 | 38 | 1036.1 |
| 20260505214527 | 80 | 238 | 3.0 | 11.0 | 0.00 | 0.00 | 0.00 | 38 | 1036.1 |
| 20260505214026 | 80 | 180 | 4.0 | 11.0 | 0.00 | 0.00 | 0.00 | 38 | 1036.1 |
| 20260505213519 | 80 | 241 | 5.0 | 21.0 | 0.00 | 0.00 | 0.00 | 37 | 1036.1 |
| 20260505213013 | 81 | 113 | 4.0 | 21.0 | 0.00 | 0.00 | 0.00 | 37 | 1036.1 |
| 20260505212507 | 81 | 239 | 4.0 | 14.0 | 0.00 | 0.00 | 0.00 | 38 | 1036.1 |
| 20260505211956 | 81 | 204 | 3.0 | 11.0 | 0.00 | 0.00 | 0.00 | 38 | 1036.0 |
| 20260505211457 | 81 | 202 | 4.0 | 11.0 | 0.00 | 0.00 | 0.00 | 37 | 1036.0 |
| 20260505211211 | 81 | 165 | 5.0 | 11.0 | 0.00 | 0.00 | 0.00 | 37 | 1036.0 |
| 20260505210445 | 81 | 213 | 5.0 | 11.0 | 0.00 | 0.00 | 0.00 | 39 | 1036.0 |
| 20260505205937 | 81 | 188 | 5.0 | 14.0 | 0.00 | 0.00 | 0.00 | 38 | 1036.0 |
| 20260505205432 | 81 | 205 | 5.0 | 15.0 | 0.00 | 0.00 | 0.00 | 38 | 1036.0 |
| 20260505204925 | 81 | 275 | 4.0 | 15.0 | 0.00 | 0.00 | 0.00 | 38 | 1036.0 |
| 20260505204415 | 81 | 320 | 4.0 | 13.0 | 0.00 | 0.00 | 0.00 | 39 | 1036.0 |
| 20260505203915 | 81 | 180 | 4.0 | 13.0 | 0.00 | 0.00 | 0.00 | 38 | 1036.0 |
| 20260505203415 | 81 | 300 | 4.0 | 13.0 | 0.00 | 0.00 | 0.00 | 38 | 1036.0 |
| 20260505202915 | 81 | 278 | 5.0 | 16.0 | 0.00 | 0.00 | 0.00 | 38 | 1036.0 |
| 20260505202419 | 81 | 213 | 6.0 | 16.0 | 0.00 | 0.00 | 0.00 | 38 | 1036.0 |
| 20260505201914 | 82 | 153 | 4.0 | 10.0 | 0.00 | 0.00 | 0.00 | 38 | 1036.1 |
| 20260505201414 | 82 | 134 | 4.0 | 15.0 | 0.00 | 0.00 | 0.00 | 38 | 1036.1 |
| 20260505200914 | 82 | 296 | 5.0 | 15.0 | 0.00 | 0.00 | 0.00 | 37 | 1036.1 |
| 20260505200416 | 82 | 255 | 5.0 | 12.0 | 0.00 | 0.00 | 0.00 | 38 | 1036.1 |
| 20260505200401 | 82 | 223 | 5.0 | 12.0 | 0.00 | 0.00 | 0.00 | 36 | 1036.1 |
| 20260505195633 | 83 | 296 | 4.0 | 15.0 | 0.00 | 0.00 | 0.00 | 39 | 1036.1 |
| 20260505194914 | 83 | 157 | 4.0 | 15.0 | 0.00 | 0.00 | 0.00 | 37 | 1036.4 |
| 20260505194413 | 83 | 155 | 4.0 | 14.0 | 0.00 | 0.00 | 0.00 | 37 | 1036.4 |
| 20260505193906 | 83 | 169 | 4.0 | 14.0 | 0.00 | 0.00 | 0.00 | 39 | 1036.4 |
| 20260505193402 | 83 | 279 | 5.0 | 14.0 | 0.00 | 0.00 | 0.00 | 40 | 1036.4 |
| 20260505192854 | 83 | 155 | 6.0 | 14.0 | 0.00 | 0.00 | 0.00 | 39 | 1036.4 |
| 20260505192348 | 83 | 158 | 6.0 | 14.0 | 0.00 | 0.00 | 0.00 | 38 | 1036.4 |
| 20260505191843 | 83 | 281 | 7.0 | 14.0 | 0.00 | 0.00 | 0.00 | 40 | 1036.6 |
| 20260505191336 | 83 | 209 | 6.0 | 14.0 | 0.00 | 0.00 | 0.00 | 39 | 1036.6 |
| 20260505190826 | 83 | 123 | 5.0 | 13.0 | 0.00 | 0.00 | 0.00 | 40 | 1036.6 |
| 20260505190324 | 83 | 236 | 5.0 | 13.0 | 0.00 | 0.00 | 0.00 | 39 | 1036.9 |
| 20260505185814 | 83 | 246 | 5.0 | 13.0 | 0.00 | 0.00 | 0.00 | 40 | 1036.9 |
| 20260505185312 | 82 | 164 | 5.0 | 13.0 | 0.00 | 0.00 | 0.00 | 42 | 1036.9 |
| 20260505184807 | 82 | 184 | 5.0 | 12.0 | 0.00 | 0.00 | 0.00 | 40 | 1037.0 |
| 20260505184515 | 83 | 144 | 5.0 | 11.0 | 0.00 | 0.00 | 0.00 | 42 | 1037.0 |
| 20260505183754 | 82 | 142 | 4.0 | 10.0 | 0.00 | 0.00 | 0.00 | 42 | 1037.0 |
| 20260505183516 | 82 | 157 | 4.0 | 14.0 | 0.00 | 0.00 | 0.00 | 43 | 1037.3 |
| 20260505182744 | 82 | 172 | 5.0 | 14.0 | 0.00 | 0.00 | 0.00 | 40 | 1037.3 |
| 20260505182236 | 82 | 253 | 4.0 | 13.0 | 0.00 | 0.00 | 0.00 | 42 | 1037.3 |
| 20260505182206 | 82 | 246 | 4.0 | 13.0 | 0.00 | 0.00 | 0.00 | 43 | 1037.5 |
| 20260505181224 | 82 | 216 | 4.0 | 11.0 | 0.00 | 0.00 | 0.00 | 44 | 1037.5 |
| 20260505180713 | 82 | 340 | 3.0 | 8.0 | 0.00 | 0.00 | 0.00 | 44 | 1037.5 |
| 20260505180212 | 82 | 263 | 4.0 | 10.0 | 0.00 | 0.00 | 0.00 | 45 | 1037.5 |
| 20260505175706 | 82 | 141 | 5.0 | 19.0 | 0.00 | 0.00 | 0.00 | 42 | 1037.5 |
| 20260505175200 | 82 | 248 | 4.0 | 19.0 | 0.00 | 0.00 | 0.00 | 43 | 1037.5 |
| 20260505174654 | 82 | 205 | 3.0 | 10.0 | 0.00 | 0.00 | 0.00 | 43 | 1037.7 |
| 20260505174149 | 81 | 249 | 4.0 | 15.0 | 0.00 | 0.00 | 0.00 | 44 | 1037.7 |
| 20260505173642 | 81 | 248 | 4.0 | 15.0 | 0.00 | 0.00 | 0.00 | 44 | 1037.7 |
| 20260505173132 | 81 | 246 | 4.0 | 16.0 | 0.00 | 0.00 | 0.00 | 45 | 1037.9 |
| 20260505172630 | 81 | 244 | 4.0 | 16.0 | 0.00 | 0.00 | 0.00 | 45 | 1037.9 |
| 20260505172120 | 81 | 207 | 3.0 | 12.0 | 0.00 | 0.00 | 0.00 | 45 | 1038.1 |
| 20260505171613 | 80 | 202 | 4.0 | 12.0 | 0.00 | 0.00 | 0.00 | 45 | 1038.1 |
| 20260505171112 | 80 | 149 | 3.0 | 10.0 | 0.00 | 0.00 | 0.00 | 44 | 1038.1 |
| 20260505170606 | 80 | 196 | 4.0 | 12.0 | 0.00 | 0.00 | 0.00 | 45 | 1038.2 |
| 20260505170100 | 80 | 153 | 4.0 | 12.0 | 0.00 | 0.00 | 0.00 | 46 | 1038.2 |
| 20260505165550 | 80 | 227 | 4.0 | 14.0 | 0.00 | 0.00 | 0.00 | 45 | 1038.2 |
| 20260505165049 | 80 | 207 | 5.0 | 16.0 | 0.00 | 0.00 | 0.00 | 46 | 1038.5 |
| 20260505164542 | 80 | 273 | 5.0 | 11.0 | 0.00 | 0.00 | 0.00 | 47 | 1038.5 |
| 20260505164037 | 80 | 225 | 5.0 | 11.0 | 0.00 | 0.00 | 0.00 | 46 | 1038.5 |
| 20260505163530 | 80 | 130 | 4.0 | 11.0 | 0.00 | 0.00 | 0.00 | 47 | 1038.5 |
| 20260505163025 | 80 | 126 | 4.0 | 11.0 | 0.00 | 0.00 | 0.00 | 48 | 1038.5 |
| 20260505162734 | 80 | 186 | 5.0 | 15.0 | 0.00 | 0.00 | 0.00 | 47 | 1038.5 |
| 20260505162008 | 80 | 193 | 5.0 | 15.0 | 0.00 | 0.00 | 0.00 | 45 | 1038.6 |
| 20260505161506 | 79 | 169 | 5.0 | 15.0 | 0.00 | 0.00 | 0.00 | 48 | 1038.6 |